sensor_id;sensor_type;location;lat;lon;timestamp;temperature;humidity
152;DHT22;68;48.792;9.164;2023-04-08T00:00:34;9.00;83.90
152;DHT22;68;48.792;9.164;2023-04-08T00:03:01;8.90;86.30
152;DHT22;68;48.792;9.164;2023-04-08T00:05:28;8.90;86.40
152;DHT22;68;48.792;9.164;2023-04-08T00:07:56;8.70;87.70
152;DHT22;68;48.792;9.164;2023-04-08T00:10:23;8.80;85.00
152;DHT22;68;48.792;9.164;2023-04-08T00:12:51;8.70;84.60
152;DHT22;68;48.792;9.164;2023-04-08T00:15:17;8.70;85.60
152;DHT22;68;48.792;9.164;2023-04-08T00:17:44;8.60;85.40
152;DHT22;68;48.792;9.164;2023-04-08T00:20:11;8.50;84.20
152;DHT22;68;48.792;9.164;2023-04-08T00:22:37;8.70;83.20
152;DHT22;68;48.792;9.164;2023-04-08T00:25:07;8.70;84.30
152;DHT22;68;48.792;9.164;2023-04-08T00:27:34;8.80;83.50
152;DHT22;68;48.792;9.164;2023-04-08T00:30:00;8.90;84.20
152;DHT22;68;48.792;9.164;2023-04-08T00:32:28;8.90;87.80
152;DHT22;68;48.792;9.164;2023-04-08T00:34:55;8.80;89.00
152;DHT22;68;48.792;9.164;2023-04-08T00:37:23;8.70;88.70
152;DHT22;68;48.792;9.164;2023-04-08T00:39:50;8.70;86.40
152;DHT22;68;48.792;9.164;2023-04-08T00:42:19;8.60;87.50
152;DHT22;68;48.792;9.164;2023-04-08T00:44:46;8.50;84.30
152;DHT22;68;48.792;9.164;2023-04-08T00:47:14;8.80;82.70
152;DHT22;68;48.792;9.164;2023-04-08T00:49:41;9.00;85.90
152;DHT22;68;48.792;9.164;2023-04-08T00:52:08;9.00;88.50
152;DHT22;68;48.792;9.164;2023-04-08T00:54:36;9.10;89.50
152;DHT22;68;48.792;9.164;2023-04-08T00:57:03;9.20;90.70
152;DHT22;68;48.792;9.164;2023-04-08T00:59:31;8.90;91.60
152;DHT22;68;48.792;9.164;2023-04-08T01:02:08;9.00;90.60
152;DHT22;68;48.792;9.164;2023-04-08T01:04:43;8.90;90.60
152;DHT22;68;48.792;9.164;2023-04-08T01:07:16;8.90;90.00
152;DHT22;68;48.792;9.164;2023-04-08T01:09:47;8.70;88.50
152;DHT22;68;48.792;9.164;2023-04-08T01:12:21;8.50;85.60
152;DHT22;68;48.792;9.164;2023-04-08T01:14:49;8.40;82.10
152;DHT22;68;48.792;9.164;2023-04-08T01:17:19;8.30;82.70
152;DHT22;68;48.792;9.164;2023-04-08T01:19:48;8.30;81.80
152;DHT22;68;48.792;9.164;2023-04-08T01:22:25;8.30;81.50
152;DHT22;68;48.792;9.164;2023-04-08T01:24:58;8.40;81.50
152;DHT22;68;48.792;9.164;2023-04-08T01:27:30;8.40;83.00
152;DHT22;68;48.792;9.164;2023-04-08T01:29:57;8.40;83.50
152;DHT22;68;48.792;9.164;2023-04-08T01:32:26;8.60;84.80
152;DHT22;68;48.792;9.164;2023-04-08T01:34:53;8.60;86.70
152;DHT22;68;48.792;9.164;2023-04-08T01:37:21;8.70;87.60
152;DHT22;68;48.792;9.164;2023-04-08T01:39:50;8.80;89.00
152;DHT22;68;48.792;9.164;2023-04-08T01:42:17;8.80;90.40
152;DHT22;68;48.792;9.164;2023-04-08T01:44:46;8.70;89.70
152;DHT22;68;48.792;9.164;2023-04-08T01:47:14;8.70;88.00
152;DHT22;68;48.792;9.164;2023-04-08T01:49:41;8.70;89.00
152;DHT22;68;48.792;9.164;2023-04-08T01:52:09;8.70;90.30
152;DHT22;68;48.792;9.164;2023-04-08T01:54:36;8.90;90.30
152;DHT22;68;48.792;9.164;2023-04-08T01:57:04;8.70;91.90
152;DHT22;68;48.792;9.164;2023-04-08T01:59:34;8.90;91.60
152;DHT22;68;48.792;9.164;2023-04-08T02:02:06;8.90;91.60
152;DHT22;68;48.792;9.164;2023-04-08T02:04:34;8.70;91.90
152;DHT22;68;48.792;9.164;2023-04-08T02:07:00;8.60;91.30
152;DHT22;68;48.792;9.164;2023-04-08T02:09:27;8.70;88.00
152;DHT22;68;48.792;9.164;2023-04-08T02:11:55;8.70;89.60
152;DHT22;68;48.792;9.164;2023-04-08T02:14:22;8.70;88.50
152;DHT22;68;48.792;9.164;2023-04-08T02:16:54;8.50;89.10
152;DHT22;68;48.792;9.164;2023-04-08T02:19:28;8.50;87.30
152;DHT22;68;48.792;9.164;2023-04-08T02:22:01;8.60;85.70
152;DHT22;68;48.792;9.164;2023-04-08T02:24:31;8.70;88.40
152;DHT22;68;48.792;9.164;2023-04-08T02:26:59;8.60;89.90
152;DHT22;68;48.792;9.164;2023-04-08T02:29:30;8.70;89.30
152;DHT22;68;48.792;9.164;2023-04-08T02:31:58;9.00;89.70
152;DHT22;68;48.792;9.164;2023-04-08T02:34:29;8.90;91.30
152;DHT22;68;48.792;9.164;2023-04-08T02:36:56;9.00;91.60
152;DHT22;68;48.792;9.164;2023-04-08T02:39:30;8.80;93.50
152;DHT22;68;48.792;9.164;2023-04-08T02:41:57;8.70;91.20
152;DHT22;68;48.792;9.164;2023-04-08T02:44:24;8.80;90.20
152;DHT22;68;48.792;9.164;2023-04-08T02:46:50;8.60;91.70
152;DHT22;68;48.792;9.164;2023-04-08T02:49:17;8.40;90.40
152;DHT22;68;48.792;9.164;2023-04-08T02:51:45;8.10;87.30
152;DHT22;68;48.792;9.164;2023-04-08T02:54:12;8.20;84.80
152;DHT22;68;48.792;9.164;2023-04-08T02:56:38;8.30;84.40
152;DHT22;68;48.792;9.164;2023-04-08T02:59:05;8.30;84.40
152;DHT22;68;48.792;9.164;2023-04-08T03:01:32;8.60;86.10
152;DHT22;68;48.792;9.164;2023-04-08T03:03:59;8.60;88.10
152;DHT22;68;48.792;9.164;2023-04-08T03:06:26;8.40;89.60
152;DHT22;68;48.792;9.164;2023-04-08T03:08:55;8.20;87.30
152;DHT22;68;48.792;9.164;2023-04-08T03:11:24;8.20;85.50
152;DHT22;68;48.792;9.164;2023-04-08T03:13:51;8.10;84.30
152;DHT22;68;48.792;9.164;2023-04-08T03:16:18;8.20;83.10
152;DHT22;68;48.792;9.164;2023-04-08T03:18:45;8.20;84.60
152;DHT22;68;48.792;9.164;2023-04-08T03:21:11;8.10;85.40
152;DHT22;68;48.792;9.164;2023-04-08T03:23:38;8.20;85.10
152;DHT22;68;48.792;9.164;2023-04-08T03:26:06;8.10;86.50
152;DHT22;68;48.792;9.164;2023-04-08T03:28:33;8.10;85.50
152;DHT22;68;48.792;9.164;2023-04-08T03:31:00;8.10;85.50
152;DHT22;68;48.792;9.164;2023-04-08T03:33:28;8.20;86.70
152;DHT22;68;48.792;9.164;2023-04-08T03:35:54;8.30;84.30
152;DHT22;68;48.792;9.164;2023-04-08T03:38:21;8.10;86.20
152;DHT22;68;48.792;9.164;2023-04-08T03:40:48;8.30;83.70
152;DHT22;68;48.792;9.164;2023-04-08T03:43:16;8.20;85.20
152;DHT22;68;48.792;9.164;2023-04-08T03:45:45;8.10;85.40
152;DHT22;68;48.792;9.164;2023-04-08T03:48:14;8.20;85.60
152;DHT22;68;48.792;9.164;2023-04-08T03:50:41;8.20;86.60
152;DHT22;68;48.792;9.164;2023-04-08T03:53:08;8.00;85.30
152;DHT22;68;48.792;9.164;2023-04-08T03:55:37;8.10;86.70
152;DHT22;68;48.792;9.164;2023-04-08T03:58:04;8.10;86.50
152;DHT22;68;48.792;9.164;2023-04-08T04:00:32;8.20;86.70
152;DHT22;68;48.792;9.164;2023-04-08T04:03:00;8.30;87.00
152;DHT22;68;48.792;9.164;2023-04-08T04:05:27;8.30;88.30
152;DHT22;68;48.792;9.164;2023-04-08T04:07:54;8.30;89.20
152;DHT22;68;48.792;9.164;2023-04-08T04:10:22;8.30;89.50
152;DHT22;68;48.792;9.164;2023-04-08T04:12:49;8.30;89.30
152;DHT22;68;48.792;9.164;2023-04-08T04:15:16;8.20;89.90
152;DHT22;68;48.792;9.164;2023-04-08T04:17:46;8.10;88.50
152;DHT22;68;48.792;9.164;2023-04-08T04:20:14;8.10;87.50
152;DHT22;68;48.792;9.164;2023-04-08T04:22:41;8.10;87.20
152;DHT22;68;48.792;9.164;2023-04-08T04:25:08;8.20;87.00
152;DHT22;68;48.792;9.164;2023-04-08T04:27:38;8.20;86.60
152;DHT22;68;48.792;9.164;2023-04-08T04:30:06;8.00;87.00
152;DHT22;68;48.792;9.164;2023-04-08T04:32:33;8.00;84.00
152;DHT22;68;48.792;9.164;2023-04-08T04:35:02;8.00;85.20
152;DHT22;68;48.792;9.164;2023-04-08T04:37:29;7.90;85.60
152;DHT22;68;48.792;9.164;2023-04-08T04:39:55;7.70;83.10
152;DHT22;68;48.792;9.164;2023-04-08T04:42:22;7.80;81.80
152;DHT22;68;48.792;9.164;2023-04-08T04:44:49;7.60;83.20
152;DHT22;68;48.792;9.164;2023-04-08T04:47:16;7.80;82.30
152;DHT22;68;48.792;9.164;2023-04-08T04:49:43;8.00;82.50
152;DHT22;68;48.792;9.164;2023-04-08T04:52:11;8.20;85.40
152;DHT22;68;48.792;9.164;2023-04-08T04:54:38;8.10;88.40
152;DHT22;68;48.792;9.164;2023-04-08T04:57:07;7.80;87.90
152;DHT22;68;48.792;9.164;2023-04-08T04:59:35;7.60;87.00
152;DHT22;68;48.792;9.164;2023-04-08T05:02:02;7.50;84.80
152;DHT22;68;48.792;9.164;2023-04-08T05:04:29;7.50;81.40
152;DHT22;68;48.792;9.164;2023-04-08T05:06:58;7.60;80.40
152;DHT22;68;48.792;9.164;2023-04-08T05:09:31;7.50;80.30
152;DHT22;68;48.792;9.164;2023-04-08T05:12:03;7.40;80.10
152;DHT22;68;48.792;9.164;2023-04-08T05:14:30;7.30;79.40
152;DHT22;68;48.792;9.164;2023-04-08T05:16:57;7.60;77.40
152;DHT22;68;48.792;9.164;2023-04-08T05:19:24;7.60;79.20
152;DHT22;68;48.792;9.164;2023-04-08T05:21:51;7.80;81.50
152;DHT22;68;48.792;9.164;2023-04-08T05:24:18;7.60;83.70
152;DHT22;68;48.792;9.164;2023-04-08T05:26:46;7.50;80.50
152;DHT22;68;48.792;9.164;2023-04-08T05:29:16;7.70;79.20
152;DHT22;68;48.792;9.164;2023-04-08T05:31:43;7.80;79.40
152;DHT22;68;48.792;9.164;2023-04-08T05:34:10;7.70;80.30
152;DHT22;68;48.792;9.164;2023-04-08T05:36:36;7.90;82.50
152;DHT22;68;48.792;9.164;2023-04-08T05:39:05;8.20;84.30
152;DHT22;68;48.792;9.164;2023-04-08T05:41:32;8.50;86.80
152;DHT22;68;48.792;9.164;2023-04-08T05:44:01;8.40;90.90
152;DHT22;68;48.792;9.164;2023-04-08T05:46:28;8.20;90.60
152;DHT22;68;48.792;9.164;2023-04-08T05:48:55;8.00;89.50
152;DHT22;68;48.792;9.164;2023-04-08T05:51:22;7.90;87.70
152;DHT22;68;48.792;9.164;2023-04-08T05:53:52;8.00;86.00
152;DHT22;68;48.792;9.164;2023-04-08T05:56:18;7.70;85.00
152;DHT22;68;48.792;9.164;2023-04-08T05:58:45;7.70;81.60
152;DHT22;68;48.792;9.164;2023-04-08T06:01:14;7.80;79.90
152;DHT22;68;48.792;9.164;2023-04-08T06:03:40;7.90;81.20
152;DHT22;68;48.792;9.164;2023-04-08T06:06:08;7.80;80.30
152;DHT22;68;48.792;9.164;2023-04-08T06:08:36;7.60;79.90
152;DHT22;68;48.792;9.164;2023-04-08T06:11:03;7.50;77.30
152;DHT22;68;48.792;9.164;2023-04-08T06:13:30;7.60;75.30
152;DHT22;68;48.792;9.164;2023-04-08T06:15:57;7.60;74.50
152;DHT22;68;48.792;9.164;2023-04-08T06:18:25;7.70;75.80
152;DHT22;68;48.792;9.164;2023-04-08T06:20:52;7.80;75.50
152;DHT22;68;48.792;9.164;2023-04-08T06:23:19;7.70;75.10
152;DHT22;68;48.792;9.164;2023-04-08T06:25:46;7.70;76.50
152;DHT22;68;48.792;9.164;2023-04-08T06:28:15;7.70;77.70
152;DHT22;68;48.792;9.164;2023-04-08T06:30:42;7.80;76.80
152;DHT22;68;48.792;9.164;2023-04-08T06:33:09;7.90;78.70
152;DHT22;68;48.792;9.164;2023-04-08T06:35:37;7.80;81.30
152;DHT22;68;48.792;9.164;2023-04-08T06:38:04;7.80;80.50
152;DHT22;68;48.792;9.164;2023-04-08T06:40:31;7.90;80.10
152;DHT22;68;48.792;9.164;2023-04-08T06:42:57;8.10;80.80
152;DHT22;68;48.792;9.164;2023-04-08T06:45:25;8.20;82.80
152;DHT22;68;48.792;9.164;2023-04-08T06:47:51;8.30;82.60
152;DHT22;68;48.792;9.164;2023-04-08T06:50:20;8.30;86.30
152;DHT22;68;48.792;9.164;2023-04-08T06:52:48;8.20;86.90
152;DHT22;68;48.792;9.164;2023-04-08T06:55:15;8.20;84.70
152;DHT22;68;48.792;9.164;2023-04-08T06:57:42;8.20;85.20
152;DHT22;68;48.792;9.164;2023-04-08T07:00:10;8.30;86.30
152;DHT22;68;48.792;9.164;2023-04-08T07:02:37;8.30;88.00
152;DHT22;68;48.792;9.164;2023-04-08T07:05:04;8.50;87.30
152;DHT22;68;48.792;9.164;2023-04-08T07:07:31;8.40;86.50
152;DHT22;68;48.792;9.164;2023-04-08T07:09:59;8.40;88.70
152;DHT22;68;48.792;9.164;2023-04-08T07:12:26;8.60;87.10
152;DHT22;68;48.792;9.164;2023-04-08T07:14:53;8.60;88.50
152;DHT22;68;48.792;9.164;2023-04-08T07:17:19;8.60;90.40
152;DHT22;68;48.792;9.164;2023-04-08T07:19:46;8.90;90.70
152;DHT22;68;48.792;9.164;2023-04-08T07:22:13;8.80;92.70
152;DHT22;68;48.792;9.164;2023-04-08T07:24:40;8.60;91.90
152;DHT22;68;48.792;9.164;2023-04-08T07:27:11;8.60;91.70
152;DHT22;68;48.792;9.164;2023-04-08T07:29:38;8.90;91.10
152;DHT22;68;48.792;9.164;2023-04-08T07:32:05;9.00;93.00
152;DHT22;68;48.792;9.164;2023-04-08T07:34:33;8.90;93.70
152;DHT22;68;48.792;9.164;2023-04-08T07:37:00;9.10;93.70
152;DHT22;68;48.792;9.164;2023-04-08T07:39:27;8.90;94.60
152;DHT22;68;48.792;9.164;2023-04-08T07:41:53;8.90;94.80
152;DHT22;68;48.792;9.164;2023-04-08T07:44:21;8.90;94.90
152;DHT22;68;48.792;9.164;2023-04-08T07:46:49;8.80;93.60
152;DHT22;68;48.792;9.164;2023-04-08T07:49:16;8.60;93.90
152;DHT22;68;48.792;9.164;2023-04-08T07:51:43;8.70;93.00
152;DHT22;68;48.792;9.164;2023-04-08T07:54:09;8.80;94.00
152;DHT22;68;48.792;9.164;2023-04-08T07:56:37;8.80;93.90
152;DHT22;68;48.792;9.164;2023-04-08T07:59:04;8.90;94.70
152;DHT22;68;48.792;9.164;2023-04-08T08:01:32;8.70;95.70
152;DHT22;68;48.792;9.164;2023-04-08T08:04:00;8.80;95.40
152;DHT22;68;48.792;9.164;2023-04-08T08:06:30;8.80;95.20
152;DHT22;68;48.792;9.164;2023-04-08T08:08:57;8.90;95.40
152;DHT22;68;48.792;9.164;2023-04-08T08:11:24;8.90;96.00
152;DHT22;68;48.792;9.164;2023-04-08T08:13:52;9.10;95.70
152;DHT22;68;48.792;9.164;2023-04-08T08:16:19;9.20;96.10
152;DHT22;68;48.792;9.164;2023-04-08T08:18:47;9.30;96.20
152;DHT22;68;48.792;9.164;2023-04-08T08:21:14;9.10;95.40
152;DHT22;68;48.792;9.164;2023-04-08T08:23:41;8.80;95.90
152;DHT22;68;48.792;9.164;2023-04-08T08:26:08;9.00;96.30
152;DHT22;68;48.792;9.164;2023-04-08T08:28:35;9.20;96.20
152;DHT22;68;48.792;9.164;2023-04-08T08:31:02;9.60;95.90
152;DHT22;68;48.792;9.164;2023-04-08T08:33:30;9.90;95.40
152;DHT22;68;48.792;9.164;2023-04-08T08:35:58;10.20;94.60
152;DHT22;68;48.792;9.164;2023-04-08T08:38:25;10.10;93.90
152;DHT22;68;48.792;9.164;2023-04-08T08:40:57;10.10;93.70
152;DHT22;68;48.792;9.164;2023-04-08T08:43:25;10.00;92.90
152;DHT22;68;48.792;9.164;2023-04-08T08:45:52;10.20;92.40
152;DHT22;68;48.792;9.164;2023-04-08T08:48:19;10.40;91.40
152;DHT22;68;48.792;9.164;2023-04-08T08:50:46;10.40;91.40
152;DHT22;68;48.792;9.164;2023-04-08T08:53:14;10.20;91.40
152;DHT22;68;48.792;9.164;2023-04-08T08:55:41;10.10;92.20
152;DHT22;68;48.792;9.164;2023-04-08T08:58:08;10.20;92.10
152;DHT22;68;48.792;9.164;2023-04-08T09:00:36;10.50;91.50
152;DHT22;68;48.792;9.164;2023-04-08T09:03:17;10.60;90.60
152;DHT22;68;48.792;9.164;2023-04-08T09:05:50;10.60;88.70
152;DHT22;68;48.792;9.164;2023-04-08T09:08:29;10.60;89.30
152;DHT22;68;48.792;9.164;2023-04-08T09:11:10;10.40;87.20
152;DHT22;68;48.792;9.164;2023-04-08T09:13:37;9.70;88.90
152;DHT22;68;48.792;9.164;2023-04-08T09:16:05;9.90;90.40
152;DHT22;68;48.792;9.164;2023-04-08T09:18:34;10.20;91.10
152;DHT22;68;48.792;9.164;2023-04-08T09:21:02;10.20;90.90
152;DHT22;68;48.792;9.164;2023-04-08T09:23:38;9.90;88.70
152;DHT22;68;48.792;9.164;2023-04-08T09:26:10;10.20;89.80
152;DHT22;68;48.792;9.164;2023-04-08T09:28:38;10.30;90.10
152;DHT22;68;48.792;9.164;2023-04-08T09:31:18;10.60;89.30
152;DHT22;68;48.792;9.164;2023-04-08T09:33:46;10.70;88.60
152;DHT22;68;48.792;9.164;2023-04-08T09:36:13;10.60;88.30
152;DHT22;68;48.792;9.164;2023-04-08T09:38:41;10.50;86.90
152;DHT22;68;48.792;9.164;2023-04-08T09:41:12;10.60;86.40
152;DHT22;68;48.792;9.164;2023-04-08T09:43:42;10.80;84.50
152;DHT22;68;48.792;9.164;2023-04-08T09:46:13;10.80;85.50
152;DHT22;68;48.792;9.164;2023-04-08T09:48:47;11.00;84.60
152;DHT22;68;48.792;9.164;2023-04-08T09:51:15;11.10;81.40
152;DHT22;68;48.792;9.164;2023-04-08T09:53:47;11.00;80.20
152;DHT22;68;48.792;9.164;2023-04-08T09:56:16;11.10;80.10
152;DHT22;68;48.792;9.164;2023-04-08T09:58:51;11.10;81.20
152;DHT22;68;48.792;9.164;2023-04-08T10:01:25;11.20;82.70
152;DHT22;68;48.792;9.164;2023-04-08T10:03:54;11.50;80.10
152;DHT22;68;48.792;9.164;2023-04-08T10:06:27;11.20;76.90
152;DHT22;68;48.792;9.164;2023-04-08T10:08:55;10.90;79.10
152;DHT22;68;48.792;9.164;2023-04-08T10:11:23;11.10;79.70
152;DHT22;68;48.792;9.164;2023-04-08T10:13:50;11.40;79.40
152;DHT22;68;48.792;9.164;2023-04-08T10:16:20;11.40;76.70
152;DHT22;68;48.792;9.164;2023-04-08T10:18:49;11.70;76.00
152;DHT22;68;48.792;9.164;2023-04-08T10:21:35;12.00;74.50
152;DHT22;68;48.792;9.164;2023-04-08T10:24:07;11.40;76.10
152;DHT22;68;48.792;9.164;2023-04-08T10:26:36;11.50;76.00
152;DHT22;68;48.792;9.164;2023-04-08T10:29:36;11.40;74.90
152;DHT22;68;48.792;9.164;2023-04-08T10:32:03;11.20;73.80
152;DHT22;68;48.792;9.164;2023-04-08T10:34:30;11.10;75.90
152;DHT22;68;48.792;9.164;2023-04-08T10:36:57;11.00;73.90
152;DHT22;68;48.792;9.164;2023-04-08T10:39:29;11.00;75.80
152;DHT22;68;48.792;9.164;2023-04-08T10:42:00;10.80;75.10
152;DHT22;68;48.792;9.164;2023-04-08T10:44:27;11.10;76.60
152;DHT22;68;48.792;9.164;2023-04-08T10:46:54;11.30;75.30
152;DHT22;68;48.792;9.164;2023-04-08T10:49:31;11.60;74.00
152;DHT22;68;48.792;9.164;2023-04-08T10:51:58;11.20;73.00
152;DHT22;68;48.792;9.164;2023-04-08T10:54:25;11.10;74.40
152;DHT22;68;48.792;9.164;2023-04-08T10:56:54;11.00;74.20
152;DHT22;68;48.792;9.164;2023-04-08T10:59:27;10.70;73.90
152;DHT22;68;48.792;9.164;2023-04-08T11:01:54;10.70;75.20
152;DHT22;68;48.792;9.164;2023-04-08T11:04:20;10.80;75.40
152;DHT22;68;48.792;9.164;2023-04-08T11:06:48;10.70;75.30
152;DHT22;68;48.792;9.164;2023-04-08T11:09:16;10.80;75.50
152;DHT22;68;48.792;9.164;2023-04-08T11:11:44;10.80;76.00
152;DHT22;68;48.792;9.164;2023-04-08T11:14:13;10.60;75.10
152;DHT22;68;48.792;9.164;2023-04-08T11:16:43;10.90;74.80
152;DHT22;68;48.792;9.164;2023-04-08T11:19:12;11.10;73.70
152;DHT22;68;48.792;9.164;2023-04-08T11:21:39;11.10;72.50
152;DHT22;68;48.792;9.164;2023-04-08T11:24:09;10.90;74.50
152;DHT22;68;48.792;9.164;2023-04-08T11:26:38;10.60;76.00
152;DHT22;68;48.792;9.164;2023-04-08T11:29:06;10.70;75.60
152;DHT22;68;48.792;9.164;2023-04-08T11:31:38;10.50;74.50
152;DHT22;68;48.792;9.164;2023-04-08T11:34:07;10.50;74.50
152;DHT22;68;48.792;9.164;2023-04-08T11:36:36;10.60;76.00
152;DHT22;68;48.792;9.164;2023-04-08T11:39:06;10.80;76.60
152;DHT22;68;48.792;9.164;2023-04-08T11:41:37;11.10;74.00
152;DHT22;68;48.792;9.164;2023-04-08T11:44:04;10.60;73.80
152;DHT22;68;48.792;9.164;2023-04-08T11:46:32;10.70;74.90
152;DHT22;68;48.792;9.164;2023-04-08T11:49:07;10.70;74.00
152;DHT22;68;48.792;9.164;2023-04-08T11:51:51;10.80;73.70
152;DHT22;68;48.792;9.164;2023-04-08T11:54:27;10.50;72.90
152;DHT22;68;48.792;9.164;2023-04-08T11:56:54;10.50;74.40
152;DHT22;68;48.792;9.164;2023-04-08T11:59:22;10.80;74.60
152;DHT22;68;48.792;9.164;2023-04-08T12:01:50;10.60;73.40
152;DHT22;68;48.792;9.164;2023-04-08T12:04:19;10.40;73.60
152;DHT22;68;48.792;9.164;2023-04-08T12:06:45;10.40;76.50
152;DHT22;68;48.792;9.164;2023-04-08T12:09:12;10.50;76.60
152;DHT22;68;48.792;9.164;2023-04-08T12:11:39;10.50;76.50
152;DHT22;68;48.792;9.164;2023-04-08T12:14:06;10.40;76.80
152;DHT22;68;48.792;9.164;2023-04-08T12:16:33;10.40;77.70
152;DHT22;68;48.792;9.164;2023-04-08T12:18:59;10.50;77.30
152;DHT22;68;48.792;9.164;2023-04-08T12:21:27;10.90;76.80
152;DHT22;68;48.792;9.164;2023-04-08T12:23:54;10.90;76.70
152;DHT22;68;48.792;9.164;2023-04-08T12:26:21;10.70;76.20
152;DHT22;68;48.792;9.164;2023-04-08T12:28:48;10.60;76.10
152;DHT22;68;48.792;9.164;2023-04-08T12:31:15;10.50;75.10
152;DHT22;68;48.792;9.164;2023-04-08T12:33:42;10.20;74.90
152;DHT22;68;48.792;9.164;2023-04-08T12:36:09;10.40;76.50
152;DHT22;68;48.792;9.164;2023-04-08T12:38:37;10.50;75.40
152;DHT22;68;48.792;9.164;2023-04-08T12:41:04;10.40;75.50
152;DHT22;68;48.792;9.164;2023-04-08T12:43:31;10.50;76.40
152;DHT22;68;48.792;9.164;2023-04-08T12:45:59;10.50;75.30
152;DHT22;68;48.792;9.164;2023-04-08T12:48:26;10.40;76.30
152;DHT22;68;48.792;9.164;2023-04-08T12:50:52;10.70;76.50
152;DHT22;68;48.792;9.164;2023-04-08T12:53:22;10.90;76.20
152;DHT22;68;48.792;9.164;2023-04-08T12:55:50;11.20;75.80
152;DHT22;68;48.792;9.164;2023-04-08T12:58:21;11.30;74.50
152;DHT22;68;48.792;9.164;2023-04-08T13:00:50;11.40;73.50
152;DHT22;68;48.792;9.164;2023-04-08T13:03:17;11.30;75.90
152;DHT22;68;48.792;9.164;2023-04-08T13:05:44;11.40;74.90
152;DHT22;68;48.792;9.164;2023-04-08T13:08:11;11.60;74.40
152;DHT22;68;48.792;9.164;2023-04-08T13:10:38;11.40;73.00
152;DHT22;68;48.792;9.164;2023-04-08T13:13:06;11.30;74.50
152;DHT22;68;48.792;9.164;2023-04-08T13:15:33;10.90;75.20
152;DHT22;68;48.792;9.164;2023-04-08T13:17:59;10.90;75.90
152;DHT22;68;48.792;9.164;2023-04-08T13:20:30;10.60;75.20
152;DHT22;68;48.792;9.164;2023-04-08T13:22:58;10.40;75.70
152;DHT22;68;48.792;9.164;2023-04-08T13:25:25;10.40;76.00
152;DHT22;68;48.792;9.164;2023-04-08T13:27:51;10.20;77.00
152;DHT22;68;48.792;9.164;2023-04-08T13:30:20;10.50;76.30
152;DHT22;68;48.792;9.164;2023-04-08T13:32:46;10.60;77.10
152;DHT22;68;48.792;9.164;2023-04-08T13:35:13;10.90;75.20
152;DHT22;68;48.792;9.164;2023-04-08T13:37:40;11.00;75.80
152;DHT22;68;48.792;9.164;2023-04-08T13:40:07;10.90;75.30
152;DHT22;68;48.792;9.164;2023-04-08T13:42:34;10.70;76.50
152;DHT22;68;48.792;9.164;2023-04-08T13:45:02;11.00;77.00
152;DHT22;68;48.792;9.164;2023-04-08T13:47:30;11.20;76.50
152;DHT22;68;48.792;9.164;2023-04-08T13:49:57;11.40;75.50
152;DHT22;68;48.792;9.164;2023-04-08T13:52:23;11.30;75.60
152;DHT22;68;48.792;9.164;2023-04-08T13:54:50;11.40;75.10
152;DHT22;68;48.792;9.164;2023-04-08T13:57:17;11.20;74.50
152;DHT22;68;48.792;9.164;2023-04-08T13:59:44;11.30;75.90
152;DHT22;68;48.792;9.164;2023-04-08T14:02:10;11.40;75.40
152;DHT22;68;48.792;9.164;2023-04-08T14:04:39;11.40;75.90
152;DHT22;68;48.792;9.164;2023-04-08T14:07:05;11.60;76.30
152;DHT22;68;48.792;9.164;2023-04-08T14:09:32;11.60;75.30
152;DHT22;68;48.792;9.164;2023-04-08T14:12:00;11.60;76.00
152;DHT22;68;48.792;9.164;2023-04-08T14:14:27;11.80;74.80
152;DHT22;68;48.792;9.164;2023-04-08T14:16:53;11.80;73.00
152;DHT22;68;48.792;9.164;2023-04-08T14:19:20;11.80;74.80
152;DHT22;68;48.792;9.164;2023-04-08T14:21:48;11.80;75.10
152;DHT22;68;48.792;9.164;2023-04-08T14:24:15;12.00;74.70
152;DHT22;68;48.792;9.164;2023-04-08T14:26:42;11.90;74.70
152;DHT22;68;48.792;9.164;2023-04-08T14:29:08;11.60;74.70
152;DHT22;68;48.792;9.164;2023-04-08T14:31:36;11.40;75.80
152;DHT22;68;48.792;9.164;2023-04-08T14:34:03;11.50;75.80
152;DHT22;68;48.792;9.164;2023-04-08T14:36:30;11.60;76.30
152;DHT22;68;48.792;9.164;2023-04-08T14:38:58;11.60;76.40
152;DHT22;68;48.792;9.164;2023-04-08T14:41:25;11.60;76.30
152;DHT22;68;48.792;9.164;2023-04-08T14:43:52;11.30;76.20
152;DHT22;68;48.792;9.164;2023-04-08T14:46:19;11.20;76.40
152;DHT22;68;48.792;9.164;2023-04-08T14:48:46;11.10;76.40
152;DHT22;68;48.792;9.164;2023-04-08T14:51:13;11.10;76.20
152;DHT22;68;48.792;9.164;2023-04-08T14:53:39;10.90;76.60
152;DHT22;68;48.792;9.164;2023-04-08T14:56:08;11.10;76.80
152;DHT22;68;48.792;9.164;2023-04-08T14:58:35;11.20;76.00
152;DHT22;68;48.792;9.164;2023-04-08T15:01:02;11.00;76.60
152;DHT22;68;48.792;9.164;2023-04-08T15:03:29;11.10;76.20
152;DHT22;68;48.792;9.164;2023-04-08T15:05:56;11.10;75.60
152;DHT22;68;48.792;9.164;2023-04-08T15:08:23;11.30;75.90
152;DHT22;68;48.792;9.164;2023-04-08T15:10:50;11.30;75.40
152;DHT22;68;48.792;9.164;2023-04-08T15:13:18;11.20;74.10
152;DHT22;68;48.792;9.164;2023-04-08T15:15:44;11.20;75.70
152;DHT22;68;48.792;9.164;2023-04-08T15:18:11;11.20;75.50
152;DHT22;68;48.792;9.164;2023-04-08T15:20:38;11.20;75.60
152;DHT22;68;48.792;9.164;2023-04-08T15:23:05;11.30;74.00
152;DHT22;68;48.792;9.164;2023-04-08T15:25:32;11.20;73.90
152;DHT22;68;48.792;9.164;2023-04-08T15:27:59;11.10;76.00
152;DHT22;68;48.792;9.164;2023-04-08T15:30:28;11.10;75.50
152;DHT22;68;48.792;9.164;2023-04-08T15:33:00;11.30;76.00
152;DHT22;68;48.792;9.164;2023-04-08T15:35:27;11.30;74.70
152;DHT22;68;48.792;9.164;2023-04-08T15:37:53;10.90;74.90
152;DHT22;68;48.792;9.164;2023-04-08T15:40:20;10.50;76.40
152;DHT22;68;48.792;9.164;2023-04-08T15:42:47;10.40;77.50
152;DHT22;68;48.792;9.164;2023-04-08T15:45:14;10.30;77.70
152;DHT22;68;48.792;9.164;2023-04-08T15:47:42;10.50;78.10
152;DHT22;68;48.792;9.164;2023-04-08T15:50:10;10.40;78.20
152;DHT22;68;48.792;9.164;2023-04-08T15:52:37;10.40;78.30
152;DHT22;68;48.792;9.164;2023-04-08T15:55:07;10.30;78.10
152;DHT22;68;48.792;9.164;2023-04-08T15:57:33;10.40;78.90
152;DHT22;68;48.792;9.164;2023-04-08T16:00:01;10.60;78.50
152;DHT22;68;48.792;9.164;2023-04-08T16:02:31;11.00;77.80
152;DHT22;68;48.792;9.164;2023-04-08T16:04:59;11.00;77.60
152;DHT22;68;48.792;9.164;2023-04-08T16:07:25;10.80;77.70
152;DHT22;68;48.792;9.164;2023-04-08T16:09:52;10.60;78.40
152;DHT22;68;48.792;9.164;2023-04-08T16:12:19;10.40;78.80
152;DHT22;68;48.792;9.164;2023-04-08T16:14:46;10.30;79.70
152;DHT22;68;48.792;9.164;2023-04-08T16:17:13;10.60;79.10
152;DHT22;68;48.792;9.164;2023-04-08T16:19:40;10.70;79.10
152;DHT22;68;48.792;9.164;2023-04-08T16:22:08;10.70;78.90
152;DHT22;68;48.792;9.164;2023-04-08T16:24:34;10.80;79.00
152;DHT22;68;48.792;9.164;2023-04-08T16:27:01;11.10;78.10
152;DHT22;68;48.792;9.164;2023-04-08T16:29:28;10.90;78.00
152;DHT22;68;48.792;9.164;2023-04-08T16:31:55;10.50;79.20
152;DHT22;68;48.792;9.164;2023-04-08T16:34:22;10.50;79.60
152;DHT22;68;48.792;9.164;2023-04-08T16:36:49;10.60;79.40
152;DHT22;68;48.792;9.164;2023-04-08T16:39:17;10.30;79.50
152;DHT22;68;48.792;9.164;2023-04-08T16:41:44;10.00;81.40
152;DHT22;68;48.792;9.164;2023-04-08T16:44:11;10.00;81.50
152;DHT22;68;48.792;9.164;2023-04-08T16:46:38;10.20;81.70
152;DHT22;68;48.792;9.164;2023-04-08T16:49:05;9.90;82.20
152;DHT22;68;48.792;9.164;2023-04-08T16:51:31;9.80;82.80
152;DHT22;68;48.792;9.164;2023-04-08T16:53:58;9.80;82.80
152;DHT22;68;48.792;9.164;2023-04-08T16:56:26;9.70;83.10
152;DHT22;68;48.792;9.164;2023-04-08T16:58:53;10.00;83.00
152;DHT22;68;48.792;9.164;2023-04-08T17:01:20;10.10;82.50
152;DHT22;68;48.792;9.164;2023-04-08T17:03:47;10.20;82.20
152;DHT22;68;48.792;9.164;2023-04-08T17:06:14;10.10;82.50